Agnew, Nebraska
Current Conditions -  °F | °C
As of 7:28 AM on Monday 24 Nov 2014 (Local Time) from KLNK Reporting Station
Overcast Overcast  
Wind Chill: 19°   Ceiling: 2900
Heat Index: 31°   Visibility: 10mi
Dew Point: 19°   Wind: 20mph
Humidity: 61%   Direction: 330°NNW
Pressure: 29.69"   Gusts: 29mph
Location:  40.9964°N, 96.8004°W
Report Text: KLNK 241328Z 33017G25KT 10SM OVC029 M01/M07 A2969 RMK AO2 T10061072
Loading
Personal Weather Stations






























Interactive Weather Map New forecast layout! Learn more

10-Day Weather Forecast

Advertisements
Track Severe Weather on mobile